createdAt,value
2022-09-03T00:00:04.518Z,18.00
2022-09-03T00:05:19.969Z,18.50
2022-09-03T00:10:33.978Z,17.90
2022-09-03T00:15:52.813Z,17.90
2022-09-03T00:21:10.005Z,18.00
2022-09-03T00:26:25.373Z,18.80
2022-09-03T00:31:49.006Z,17.80
2022-09-03T00:36:55.359Z,17.90
2022-09-03T00:42:13.344Z,17.60
2022-09-03T00:47:26.089Z,17.20
2022-09-03T00:52:43.448Z,18.10
2022-09-03T00:57:56.239Z,18.70
2022-09-03T01:03:09.287Z,17.90
2022-09-03T01:08:37.179Z,18.00
2022-09-03T01:13:47.987Z,18.00
2022-09-03T01:19:02.737Z,17.20
2022-09-03T01:24:30.056Z,17.70
2022-09-03T01:29:39.828Z,17.70
2022-09-03T01:34:55.000Z,17.60
2022-09-03T01:40:13.836Z,17.60
2022-09-03T01:45:51.502Z,17.50
2022-09-03T01:51:10.062Z,17.50
2022-09-03T01:56:35.950Z,17.60
2022-09-03T02:01:46.979Z,17.30
2022-09-03T02:06:54.032Z,17.30
2022-09-03T02:12:03.072Z,17.50
2022-09-03T02:17:12.160Z,17.00
2022-09-03T02:22:22.123Z,16.40
2022-09-03T02:27:33.447Z,17.40
2022-09-03T02:33:08.087Z,17.60
2022-09-03T02:38:21.145Z,17.40
2022-09-03T02:43:31.332Z,17.90
2022-09-03T02:48:41.025Z,17.10
2022-09-03T02:53:51.098Z,17.10
2022-09-03T02:59:30.735Z,16.80
2022-09-03T03:04:44.382Z,16.80
2022-09-03T03:09:48.505Z,15.90
2022-09-03T03:15:05.484Z,16.40
2022-09-03T03:20:24.944Z,16.50
2022-09-03T03:25:31.867Z,16.80
2022-09-03T03:30:43.537Z,15.70
2022-09-03T03:36:04.953Z,16.20
2022-09-03T03:41:16.074Z,15.40
2022-09-03T03:46:22.557Z,15.60
2022-09-03T03:51:39.310Z,14.40
2022-09-03T03:56:55.655Z,16.10
2022-09-03T04:02:03.088Z,15.30
2022-09-03T04:07:17.812Z,15.80
2022-09-03T04:12:33.469Z,15.30
2022-09-03T04:17:40.350Z,16.30
2022-09-03T04:22:55.383Z,15.60
2022-09-03T04:27:59.398Z,16.20
2022-09-03T04:33:06.471Z,15.60
2022-09-03T04:38:30.342Z,14.60
2022-09-03T04:43:43.910Z,15.90
2022-09-03T04:49:07.857Z,15.30
2022-09-03T04:54:16.051Z,15.30
2022-09-03T04:59:19.452Z,15.30
2022-09-03T05:04:23.318Z,15.30
2022-09-03T05:09:29.348Z,15.40
2022-09-03T05:14:33.509Z,16.30
2022-09-03T05:19:38.124Z,15.40
2022-09-03T05:24:43.471Z,15.40
2022-09-03T05:29:49.900Z,15.50
2022-09-03T05:34:57.884Z,15.50
2022-09-03T05:40:06.787Z,15.80
2022-09-03T05:45:11.530Z,15.60
2022-09-03T05:50:15.480Z,15.50
2022-09-03T05:55:25.372Z,16.50
2022-09-03T06:00:29.267Z,15.90
2022-09-03T06:05:33.153Z,16.00
2022-09-03T06:10:41.006Z,16.20
2022-09-03T06:15:45.365Z,16.20
2022-09-03T06:20:58.667Z,16.20
2022-09-03T06:26:17.236Z,16.50
2022-09-03T06:31:21.196Z,16.70
2022-09-03T06:36:33.677Z,16.70
2022-09-03T06:41:41.973Z,16.60
2022-09-03T06:46:46.058Z,17.30
2022-09-03T06:51:49.362Z,17.50
2022-09-03T06:56:54.593Z,17.70
2022-09-03T07:02:00.913Z,18.10
2022-09-03T07:07:10.557Z,18.20
2022-09-03T07:12:19.846Z,18.20
2022-09-03T07:17:23.969Z,19.20
2022-09-03T07:22:31.310Z,19.10
2022-09-03T07:27:38.829Z,18.80
2022-09-03T07:32:42.863Z,18.80
2022-09-03T07:37:46.575Z,18.80
2022-09-03T07:43:03.496Z,18.80
2022-09-03T07:48:13.006Z,19.00
2022-09-03T07:53:25.075Z,19.10
2022-09-03T07:58:36.384Z,19.30
2022-09-03T08:03:40.706Z,19.80
2022-09-03T08:08:46.347Z,20.60
2022-09-03T08:14:00.316Z,20.80
2022-09-03T08:19:14.983Z,21.60
2022-09-03T08:24:21.299Z,22.80
2022-09-03T08:29:29.095Z,22.20
2022-09-03T08:34:35.056Z,21.80
2022-09-03T08:39:42.329Z,21.80
2022-09-03T08:44:52.439Z,23.20
2022-09-03T08:50:02.565Z,24.00
2022-09-03T08:55:24.569Z,23.60
2022-09-03T09:00:40.056Z,23.00
2022-09-03T09:05:48.536Z,25.20
2022-09-03T09:11:03.074Z,26.10
2022-09-03T09:16:11.500Z,25.90
2022-09-03T09:21:22.658Z,24.60
2022-09-03T09:26:27.746Z,25.90
2022-09-03T09:31:36.256Z,26.80
2022-09-03T09:36:48.759Z,25.10
2022-09-03T09:42:05.749Z,24.80
2022-09-03T09:47:38.035Z,24.70
2022-09-03T09:52:41.745Z,25.40
2022-09-03T09:57:46.243Z,25.90
2022-09-03T10:02:54.791Z,27.70
2022-09-03T10:08:04.929Z,26.60
2022-09-03T10:13:12.658Z,26.30
2022-09-03T10:18:28.698Z,24.20
2022-09-03T10:23:43.014Z,23.60
2022-09-03T10:28:49.808Z,23.70
2022-09-03T10:34:07.085Z,23.10
2022-09-03T10:39:13.945Z,24.60
2022-09-03T10:44:35.793Z,27.80
2022-09-03T10:49:50.029Z,28.20
2022-09-03T10:55:04.427Z,27.80
2022-09-03T11:00:23.245Z,27.20
2022-09-03T11:05:44.856Z,26.60
2022-09-03T11:10:50.520Z,26.80
2022-09-03T11:15:58.251Z,28.20
2022-09-03T11:21:11.862Z,26.70
2022-09-03T11:26:21.106Z,25.20
2022-09-03T11:31:43.229Z,24.90
2022-09-03T11:36:56.427Z,26.00
2022-09-03T11:42:08.681Z,27.30
2022-09-03T11:47:23.504Z,25.70
2022-09-03T11:52:40.606Z,25.50
2022-09-03T11:57:46.371Z,24.30
2022-09-03T12:02:54.312Z,23.70
2022-09-03T12:08:21.626Z,23.60
2022-09-03T12:13:34.508Z,23.20
2022-09-03T12:18:38.622Z,22.60
2022-09-03T12:23:45.619Z,22.20
2022-09-03T12:29:09.442Z,21.70
2022-09-03T12:40:31.830Z,20.00
2022-09-03T12:56:55.257Z,21.00
2022-09-03T13:02:02.352Z,20.80
2022-09-03T13:07:07.349Z,21.00
2022-09-03T13:12:34.659Z,21.20
2022-09-03T13:18:20.314Z,21.40
2022-09-03T13:23:53.421Z,22.00
2022-09-03T13:29:13.646Z,21.70
2022-09-03T13:34:18.424Z,21.50
2022-09-03T13:39:27.404Z,21.70
2022-09-03T13:44:38.024Z,22.30
2022-09-03T13:50:06.702Z,22.70
2022-09-03T13:55:14.765Z,24.90
2022-09-03T14:00:29.055Z,24.60
2022-09-03T14:05:42.411Z,25.10
2022-09-03T14:10:53.849Z,25.30
2022-09-03T14:16:02.004Z,24.90
2022-09-03T14:21:10.722Z,24.30
2022-09-03T14:26:39.871Z,23.60
2022-09-03T14:32:06.321Z,23.50
2022-09-03T14:37:24.120Z,23.50
2022-09-03T14:42:43.393Z,23.60
2022-09-03T14:47:57.013Z,24.00
2022-09-03T14:53:20.109Z,26.90
2022-09-03T14:58:32.770Z,27.90
2022-09-03T15:04:14.696Z,28.40
2022-09-03T15:09:40.393Z,27.80
2022-09-03T15:14:54.354Z,26.30
2022-09-03T15:20:18.094Z,26.20
2022-09-03T15:25:28.353Z,28.40
2022-09-03T15:30:41.945Z,26.90
2022-09-03T15:36:12.964Z,29.10
2022-09-03T15:41:30.557Z,30.60
2022-09-03T15:47:01.605Z,31.70
2022-09-03T15:52:17.239Z,29.50
2022-09-03T15:57:27.529Z,26.00
2022-09-03T16:02:38.900Z,26.60
2022-09-03T16:08:01.781Z,25.30
2022-09-03T16:13:08.812Z,26.00
2022-09-03T16:18:25.695Z,29.00
2022-09-03T16:23:34.183Z,28.00
2022-09-03T16:28:45.339Z,28.70
2022-09-03T16:33:57.919Z,29.80
2022-09-03T16:39:05.026Z,27.80
2022-09-03T16:44:13.544Z,25.10
2022-09-03T16:49:50.396Z,23.50
2022-09-03T16:55:05.010Z,23.00
2022-09-03T17:00:11.376Z,22.50
2022-09-03T17:05:26.440Z,21.80
2022-09-03T17:10:35.775Z,21.60
2022-09-03T17:15:44.525Z,21.50
2022-09-03T17:21:00.240Z,20.40
2022-09-03T17:26:09.229Z,21.40
2022-09-03T17:31:16.748Z,21.10
2022-09-03T17:36:27.677Z,20.10
2022-09-03T17:41:47.664Z,20.80
2022-09-03T17:47:12.601Z,20.70
2022-09-03T17:52:28.579Z,20.60
2022-09-03T17:57:43.643Z,20.50
2022-09-03T18:02:59.071Z,20.60
2022-09-03T18:08:10.478Z,20.50
2022-09-03T18:13:23.734Z,21.00
2022-09-03T18:18:36.819Z,20.90
2022-09-03T18:24:06.864Z,20.60
2022-09-03T18:29:42.742Z,20.50
2022-09-03T18:35:04.352Z,20.10
2022-09-03T18:40:27.454Z,19.50
2022-09-03T18:46:45.926Z,20.00
2022-09-03T18:51:44.101Z,19.80
2022-09-03T18:57:07.959Z,19.70
2022-09-03T19:02:47.342Z,19.90
2022-09-03T19:08:12.527Z,20.50
2022-09-03T19:13:41.722Z,20.30
2022-09-03T19:19:40.163Z,20.00
2022-09-03T19:25:08.263Z,19.70
2022-09-03T19:30:38.047Z,19.70
2022-09-03T19:36:21.756Z,19.40
2022-09-03T19:42:07.212Z,19.60
2022-09-03T19:47:32.721Z,19.60
2022-09-03T19:53:11.814Z,19.60
2022-09-03T19:58:44.130Z,19.00
2022-09-03T20:04:07.550Z,19.60
2022-09-03T20:09:43.451Z,20.70
2022-09-03T20:15:00.382Z,19.70
2022-09-03T20:20:17.653Z,19.20
2022-09-03T20:25:52.156Z,18.90
2022-09-03T20:31:03.780Z,18.80
2022-09-03T20:36:19.562Z,19.00
2022-09-03T20:41:51.919Z,18.80
2022-09-03T20:47:00.432Z,18.70
2022-09-03T20:52:21.426Z,18.60
2022-09-03T20:57:49.197Z,19.00
2022-09-03T21:03:28.228Z,18.30
2022-09-03T21:08:49.639Z,19.00
2022-09-03T21:14:08.939Z,17.90
2022-09-03T21:19:20.396Z,17.00
2022-09-03T21:24:34.736Z,18.40
2022-09-03T21:29:50.572Z,17.70
2022-09-03T21:35:04.199Z,17.70
2022-09-03T21:40:24.313Z,17.60
2022-09-03T21:45:39.130Z,17.50
2022-09-03T21:50:52.014Z,17.60
2022-09-03T21:56:28.405Z,17.50
2022-09-03T22:01:37.343Z,17.40
2022-09-03T22:07:07.013Z,17.30
2022-09-03T22:12:22.918Z,17.30
2022-09-03T22:17:46.795Z,17.00
2022-09-03T22:22:56.905Z,17.60
2022-09-03T22:28:08.210Z,17.20
2022-09-03T22:33:16.955Z,17.00
2022-09-03T22:38:54.163Z,17.20
2022-09-03T22:44:14.084Z,17.80
2022-09-03T22:49:40.029Z,16.90
2022-09-03T22:54:51.713Z,16.80
2022-09-03T23:00:10.835Z,16.70
2022-09-03T23:05:34.290Z,16.70
2022-09-03T23:10:55.178Z,17.30
2022-09-03T23:16:08.409Z,17.00
2022-09-03T23:21:27.616Z,16.60
2022-09-03T23:26:49.094Z,16.00
2022-09-03T23:31:58.379Z,17.20
2022-09-03T23:37:34.070Z,17.80
2022-09-03T23:42:52.011Z,17.60
2022-09-03T23:47:57.731Z,16.70
2022-09-03T23:53:20.815Z,16.80
2022-09-03T23:58:34.843Z,16.50
